createdAt,value
2019-01-27T00:00:04.852Z,3.89
2019-01-27T00:01:04.875Z,3.79
2019-01-27T00:02:04.836Z,3.86
2019-01-27T00:03:04.823Z,3.83
2019-01-27T00:04:04.805Z,3.83
2019-01-27T00:05:04.800Z,3.82
2019-01-27T00:06:05.002Z,3.92
2019-01-27T00:07:04.779Z,3.94
2019-01-27T00:08:04.748Z,3.89
2019-01-27T00:09:04.746Z,3.86
2019-01-27T00:10:04.777Z,3.85
2019-01-27T00:11:04.738Z,3.97
2019-01-27T00:12:04.720Z,3.88
2019-01-27T00:13:04.702Z,3.92
2019-01-27T00:14:04.689Z,3.88
2019-01-27T00:15:04.692Z,3.94
2019-01-27T00:16:04.675Z,3.92
2019-01-27T00:17:04.654Z,3.85
2019-01-27T00:18:04.637Z,3.86
2019-01-27T00:19:04.643Z,3.85
2019-01-27T00:20:04.648Z,3.88
2019-01-27T00:21:04.609Z,3.88
2019-01-27T00:22:04.613Z,3.89
2019-01-27T00:23:04.602Z,3.83
2019-01-27T00:24:04.589Z,3.89
2019-01-27T00:25:04.592Z,3.86
2019-01-27T00:26:04.554Z,3.86
2019-01-27T00:27:04.543Z,3.85
2019-01-27T00:28:04.550Z,3.85
2019-01-27T00:29:04.523Z,3.86
2019-01-27T00:30:04.545Z,3.88
2019-01-27T00:31:04.512Z,3.85
2019-01-27T00:32:04.489Z,3.76
2019-01-27T00:33:04.527Z,3.85
2019-01-27T00:34:04.482Z,3.82
2019-01-27T00:35:04.490Z,3.80
2019-01-27T00:36:04.453Z,3.75
2019-01-27T00:37:04.441Z,3.80
2019-01-27T00:38:04.443Z,3.71
2019-01-27T00:39:04.421Z,3.78
2019-01-27T00:40:04.430Z,3.71
2019-01-27T00:41:04.394Z,3.76
2019-01-27T00:42:04.398Z,3.79
2019-01-27T00:43:04.384Z,3.78
2019-01-27T00:44:04.376Z,3.75
2019-01-27T00:45:04.364Z,3.76
2019-01-27T00:46:04.348Z,3.76
2019-01-27T00:47:04.319Z,3.72
2019-01-27T00:48:04.333Z,3.75
2019-01-27T00:49:04.464Z,3.72
2019-01-27T00:50:04.298Z,3.72
2019-01-27T00:51:04.313Z,3.72
2019-01-27T00:52:04.279Z,3.72
2019-01-27T00:53:04.256Z,3.79
2019-01-27T00:54:04.253Z,3.76
2019-01-27T00:55:04.258Z,3.70
2019-01-27T00:56:04.238Z,3.72
2019-01-27T00:57:04.260Z,3.70
2019-01-27T00:58:04.205Z,3.71
2019-01-27T00:59:04.197Z,3.78
2019-01-27T01:00:04.188Z,3.68
2019-01-27T01:01:04.193Z,3.64
2019-01-27T01:02:04.176Z,3.72
2019-01-27T01:03:04.173Z,3.70
2019-01-27T01:04:04.155Z,3.71
2019-01-27T01:05:04.121Z,3.75
2019-01-27T01:06:04.130Z,3.67
2019-01-27T01:07:04.122Z,3.71
2019-01-27T01:08:04.115Z,3.72
2019-01-27T01:09:04.097Z,3.67
2019-01-27T01:10:04.102Z,3.78
2019-01-27T01:11:04.082Z,3.70
2019-01-27T01:12:04.053Z,3.68
2019-01-27T01:13:04.071Z,3.60
2019-01-27T01:14:04.068Z,3.67
2019-01-27T01:15:04.026Z,3.79
2019-01-27T01:16:04.038Z,3.70
2019-01-27T01:17:04.012Z,3.58
2019-01-27T01:18:04.007Z,3.67
2019-01-27T01:19:03.985Z,3.72
2019-01-27T01:20:03.972Z,3.65
2019-01-27T01:21:03.966Z,3.67
2019-01-27T01:22:03.945Z,3.60
2019-01-27T01:23:04.040Z,3.71
2019-01-27T01:24:03.920Z,3.65
2019-01-27T01:25:03.907Z,3.54
2019-01-27T01:26:03.911Z,3.70
2019-01-27T01:27:03.906Z,3.54
2019-01-27T01:28:03.915Z,3.58
2019-01-27T01:29:03.927Z,3.52
2019-01-27T01:30:03.867Z,3.58
2019-01-27T01:31:03.855Z,3.60
2019-01-27T01:32:03.872Z,3.52
2019-01-27T01:33:03.853Z,3.60
2019-01-27T01:34:03.844Z,3.57
2019-01-27T01:35:03.813Z,3.54
2019-01-27T01:36:03.796Z,3.47
2019-01-27T01:37:03.774Z,3.58
2019-01-27T01:38:03.795Z,3.54
2019-01-27T01:39:03.767Z,3.54
2019-01-27T01:40:03.759Z,3.61
2019-01-27T01:41:03.743Z,3.62
2019-01-27T01:42:03.730Z,3.65
2019-01-27T01:43:03.754Z,3.50
2019-01-27T01:44:03.721Z,3.57
2019-01-27T01:45:03.699Z,3.60
2019-01-27T01:46:03.697Z,3.57
2019-01-27T01:47:03.682Z,3.50
2019-01-27T01:48:03.677Z,3.43
2019-01-27T01:49:03.691Z,3.60
2019-01-27T01:50:03.637Z,3.54
2019-01-27T01:51:03.623Z,3.47
2019-01-27T01:52:03.635Z,3.50
2019-01-27T01:53:03.616Z,3.43
2019-01-27T01:54:03.622Z,3.49
2019-01-27T01:55:03.590Z,3.46
2019-01-27T01:56:03.574Z,3.49
2019-01-27T01:57:03.561Z,3.44
2019-01-27T01:58:03.561Z,3.47
2019-01-27T01:59:03.565Z,3.46
2019-01-27T02:00:03.568Z,3.49
2019-01-27T02:01:03.571Z,3.36
2019-01-27T02:02:03.512Z,3.40
2019-01-27T02:03:03.504Z,3.34
2019-01-27T02:04:03.486Z,3.40
2019-01-27T02:05:03.488Z,3.34
2019-01-27T02:06:03.504Z,3.34
2019-01-27T02:07:03.468Z,3.36
2019-01-27T02:08:03.446Z,3.36
2019-01-27T02:09:03.427Z,3.40
2019-01-27T02:10:03.464Z,3.42
2019-01-27T02:11:03.432Z,3.43
2019-01-27T02:12:03.417Z,3.39
2019-01-27T02:13:03.405Z,3.28
2019-01-27T02:14:03.387Z,3.27
2019-01-27T02:15:03.369Z,3.28
2019-01-27T02:16:03.374Z,3.28
2019-01-27T02:17:03.347Z,3.28
2019-01-27T02:18:03.350Z,3.33
2019-01-27T02:19:03.337Z,3.27
2019-01-27T02:20:03.319Z,3.25
2019-01-27T02:21:03.350Z,3.34
2019-01-27T02:22:03.394Z,3.31
2019-01-27T02:23:03.287Z,3.27
2019-01-27T02:24:03.282Z,3.28
2019-01-27T02:25:03.271Z,3.28
2019-01-27T02:26:03.255Z,3.23
2019-01-27T02:27:03.257Z,3.21
2019-01-27T02:28:03.220Z,3.25
2019-01-27T02:29:03.209Z,3.25
2019-01-27T02:30:03.219Z,3.28
2019-01-27T02:31:03.202Z,3.25
2019-01-27T02:32:03.210Z,3.20
2019-01-27T02:33:03.207Z,3.21
2019-01-27T02:34:03.162Z,3.27
2019-01-27T02:35:03.152Z,3.28
2019-01-27T02:36:03.144Z,3.24
2019-01-27T02:37:03.134Z,3.28
2019-01-27T02:38:03.161Z,3.30
2019-01-27T02:39:03.116Z,3.28
2019-01-27T02:40:03.108Z,3.27
2019-01-27T02:41:03.090Z,3.27
2019-01-27T02:42:03.091Z,3.25
2019-01-27T02:43:03.084Z,3.21
2019-01-27T02:44:03.110Z,3.27
2019-01-27T02:45:03.054Z,3.23
2019-01-27T02:46:03.032Z,3.30
2019-01-27T02:47:03.028Z,3.31
2019-01-27T02:48:03.028Z,3.23
2019-01-27T02:49:03.023Z,3.20
2019-01-27T02:50:02.999Z,3.21
2019-01-27T02:51:03.006Z,3.24
2019-01-27T02:52:02.981Z,3.25
2019-01-27T02:53:02.966Z,3.27
2019-01-27T02:54:02.968Z,3.27
2019-01-27T02:55:02.949Z,3.25
2019-01-27T02:56:02.939Z,3.25
2019-01-27T02:57:02.922Z,3.15
2019-01-27T02:58:02.905Z,3.15
2019-01-27T02:59:03.513Z,3.25
2019-01-27T03:00:02.892Z,3.15
2019-01-27T03:01:02.865Z,3.20
2019-01-27T03:02:02.873Z,3.16
2019-01-27T03:03:02.868Z,3.21
2019-01-27T03:04:02.863Z,3.15
2019-01-27T03:05:02.832Z,3.20
2019-01-27T03:06:02.864Z,3.10
2019-01-27T03:07:02.807Z,3.16
2019-01-27T03:08:02.793Z,3.06
2019-01-27T03:09:02.826Z,3.07
2019-01-27T03:10:02.783Z,3.12
2019-01-27T03:11:02.774Z,3.05
2019-01-27T03:12:02.777Z,3.07
2019-01-27T03:13:02.740Z,3.00
2019-01-27T03:14:03.451Z,3.00
2019-01-27T03:15:02.730Z,3.03
2019-01-27T03:16:02.731Z,2.97
2019-01-27T03:17:02.738Z,3.03
2019-01-27T03:18:02.681Z,3.06
2019-01-27T03:19:02.679Z,3.03
2019-01-27T03:20:02.667Z,3.00
2019-01-27T03:21:02.673Z,2.97
2019-01-27T03:22:02.649Z,3.00
2019-01-27T03:23:02.664Z,3.03
2019-01-27T03:24:02.624Z,3.03
2019-01-27T03:25:02.621Z,3.05
2019-01-27T03:26:02.636Z,2.95
2019-01-27T03:27:02.608Z,3.05
2019-01-27T03:28:02.583Z,3.03
2019-01-27T03:29:02.582Z,3.05
2019-01-27T03:30:02.561Z,2.91
2019-01-27T03:31:02.555Z,2.92
2019-01-27T03:32:02.569Z,2.92
2019-01-27T03:33:02.542Z,3.05
2019-01-27T03:34:02.538Z,2.92
2019-01-27T03:35:02.527Z,2.94
2019-01-27T03:36:02.496Z,2.94
2019-01-27T03:37:02.491Z,2.88
2019-01-27T03:38:02.492Z,2.89
2019-01-27T03:39:02.453Z,2.91
2019-01-27T03:40:02.478Z,2.91
2019-01-27T03:41:02.429Z,2.94
2019-01-27T03:42:02.433Z,2.94
2019-01-27T03:43:02.430Z,2.89
2019-01-27T03:44:02.414Z,3.02
2019-01-27T03:45:02.387Z,2.94
2019-01-27T03:46:02.431Z,2.97
2019-01-27T03:47:02.375Z,2.94
2019-01-27T03:48:02.370Z,2.91
2019-01-27T03:49:02.355Z,2.91
2019-01-27T03:50:02.347Z,2.89
2019-01-27T03:51:02.324Z,2.98
2019-01-27T03:52:02.335Z,2.85
2019-01-27T03:53:02.340Z,2.87
2019-01-27T03:54:02.603Z,2.81
2019-01-27T03:55:02.285Z,2.82
2019-01-27T03:56:02.288Z,2.89
2019-01-27T03:57:02.274Z,2.84
2019-01-27T03:58:02.261Z,2.91
2019-01-27T03:59:02.268Z,2.88
2019-01-27T04:00:02.244Z,2.92
2019-01-27T04:01:02.223Z,2.82
2019-01-27T04:02:02.215Z,2.94
2019-01-27T04:03:02.187Z,2.84
2019-01-27T04:04:02.200Z,2.87
2019-01-27T04:05:02.174Z,2.92
2019-01-27T04:06:02.158Z,2.84
2019-01-27T04:07:02.165Z,2.81
2019-01-27T04:08:02.190Z,2.81
2019-01-27T04:09:02.136Z,2.79
2019-01-27T04:10:02.113Z,2.76
2019-01-27T04:11:02.104Z,2.81
2019-01-27T04:12:02.126Z,2.92
2019-01-27T04:13:02.095Z,2.88
2019-01-27T04:14:02.081Z,2.84
2019-01-27T04:15:02.071Z,2.79
2019-01-27T04:16:02.046Z,2.84
2019-01-27T04:17:02.036Z,2.79
2019-01-27T04:18:02.055Z,2.84
2019-01-27T04:19:02.027Z,2.81
2019-01-27T04:20:02.032Z,2.81
2019-01-27T04:21:02.011Z,2.85
2019-01-27T04:22:01.989Z,2.79
2019-01-27T04:23:02.006Z,2.81
2019-01-27T04:24:01.970Z,2.85
2019-01-27T04:25:01.962Z,2.85
2019-01-27T04:26:01.952Z,2.82
2019-01-27T04:27:01.944Z,2.85
2019-01-27T04:28:01.933Z,2.81
2019-01-27T04:29:01.936Z,2.89
2019-01-27T04:30:02.058Z,2.85
2019-01-27T04:31:01.892Z,2.88
2019-01-27T04:32:01.895Z,2.84
2019-01-27T04:33:01.895Z,2.84
2019-01-27T04:34:01.871Z,2.81
2019-01-27T04:35:01.887Z,2.79
2019-01-27T04:36:01.840Z,2.81
2019-01-27T04:37:01.851Z,2.82
2019-01-27T04:38:01.842Z,2.87
2019-01-27T04:39:01.891Z,2.85
2019-01-27T04:40:01.807Z,2.82
2019-01-27T04:41:01.787Z,2.92
2019-01-27T04:42:01.772Z,2.79
2019-01-27T04:43:01.758Z,2.94
2019-01-27T04:44:01.750Z,2.88
2019-01-27T04:45:01.776Z,2.87
2019-01-27T04:46:01.728Z,2.79
2019-01-27T04:47:01.724Z,2.87
2019-01-27T04:48:01.703Z,2.89
2019-01-27T04:49:01.704Z,2.85
2019-01-27T04:50:01.697Z,2.91
2019-01-27T04:51:01.703Z,2.88
2019-01-27T04:52:01.668Z,2.92
2019-01-27T04:53:01.656Z,2.88
2019-01-27T04:54:01.635Z,2.85
2019-01-27T04:55:01.626Z,2.85
2019-01-27T04:56:01.616Z,2.94
2019-01-27T04:57:01.622Z,2.82
2019-01-27T04:58:01.601Z,2.87
2019-01-27T04:59:01.593Z,2.85
2019-01-27T05:00:01.583Z,2.89
2019-01-27T05:01:01.578Z,2.89
2019-01-27T05:02:01.543Z,2.87
2019-01-27T05:03:01.536Z,2.84
2019-01-27T05:04:01.545Z,2.84
2019-01-27T05:05:01.536Z,2.88
2019-01-27T05:06:01.528Z,2.87
2019-01-27T05:07:01.508Z,2.85
2019-01-27T05:08:01.485Z,2.88
2019-01-27T05:09:01.476Z,2.81
2019-01-27T05:10:01.482Z,2.81
2019-01-27T05:11:01.490Z,2.81
2019-01-27T05:12:01.455Z,2.81
2019-01-27T05:13:01.447Z,2.81
2019-01-27T05:14:01.436Z,2.82
2019-01-27T05:15:01.417Z,2.85
2019-01-27T05:16:01.399Z,2.77
2019-01-27T05:17:01.415Z,2.82
2019-01-27T05:18:01.394Z,2.84
2019-01-27T05:19:01.378Z,2.81
2019-01-27T05:20:01.360Z,2.82
2019-01-27T05:21:01.346Z,2.85
2019-01-27T05:22:01.370Z,2.79
2019-01-27T05:23:01.335Z,2.81
2019-01-27T05:24:01.335Z,2.84
2019-01-27T05:25:01.341Z,2.81
2019-01-27T05:26:01.289Z,2.79
2019-01-27T05:27:01.557Z,2.81
2019-01-27T05:28:01.271Z,2.92
2019-01-27T05:29:01.264Z,2.87
2019-01-27T05:30:01.252Z,2.87
2019-01-27T05:31:01.238Z,2.77
2019-01-27T05:32:01.261Z,2.88
2019-01-27T05:33:01.227Z,2.85
2019-01-27T05:34:01.203Z,2.82
2019-01-27T05:35:01.230Z,2.85
2019-01-27T05:36:01.191Z,2.81
2019-01-27T05:37:01.192Z,2.76
2019-01-27T05:38:01.172Z,2.84
2019-01-27T05:39:01.160Z,2.85
2019-01-27T05:40:01.135Z,2.79
2019-01-27T05:41:01.154Z,2.84
2019-01-27T05:42:01.136Z,2.81
2019-01-27T05:43:01.110Z,2.88
2019-01-27T05:44:01.105Z,2.85
2019-01-27T05:45:01.100Z,2.84
2019-01-27T05:46:01.092Z,2.79
2019-01-27T05:47:01.086Z,2.82
2019-01-27T05:48:01.064Z,2.85
2019-01-27T05:49:01.048Z,2.81
2019-01-27T05:50:01.031Z,2.82
2019-01-27T05:51:01.025Z,2.82
2019-01-27T05:52:01.022Z,2.81
2019-01-27T05:53:00.989Z,2.81
2019-01-27T05:54:00.999Z,2.87
2019-01-27T05:55:00.998Z,2.87
2019-01-27T05:56:00.975Z,2.84
2019-01-27T05:57:00.989Z,2.81
2019-01-27T05:58:00.947Z,2.82
2019-01-27T05:59:00.932Z,2.74
2019-01-27T06:00:00.930Z,2.87
2019-01-27T06:01:00.916Z,2.82
2019-01-27T06:02:00.913Z,2.87
2019-01-27T06:03:00.900Z,2.81
2019-01-27T06:04:00.901Z,2.84
2019-01-27T06:05:00.909Z,2.92
2019-01-27T06:06:00.853Z,2.94
2019-01-27T06:07:00.837Z,2.88
2019-01-27T06:08:00.860Z,2.77
2019-01-27T06:09:00.834Z,2.85
2019-01-27T06:10:00.850Z,2.89
2019-01-27T06:11:00.797Z,2.92
2019-01-27T06:12:00.799Z,2.82
2019-01-27T06:13:00.779Z,2.85
2019-01-27T06:14:00.795Z,2.92
2019-01-27T06:15:00.804Z,2.89
2019-01-27T06:16:00.751Z,2.84
2019-01-27T06:17:00.750Z,2.88
2019-01-27T06:18:00.722Z,2.85
2019-01-27T06:19:00.725Z,2.87
2019-01-27T06:20:01.546Z,2.85
2019-01-27T06:21:00.770Z,2.98
2019-01-27T06:22:01.550Z,2.97
2019-01-27T06:23:00.684Z,2.98
2019-01-27T06:24:00.690Z,2.95
2019-01-27T06:25:00.638Z,2.91
2019-01-27T06:26:00.666Z,2.97
2019-01-27T06:27:00.678Z,2.95
2019-01-27T06:28:00.705Z,2.91
2019-01-27T06:29:00.623Z,2.95
2019-01-27T06:30:01.477Z,2.95
2019-01-27T06:31:00.580Z,2.89
2019-01-27T06:32:00.634Z,2.97
2019-01-27T06:33:00.589Z,2.89
2019-01-27T06:34:00.628Z,2.95
2019-01-27T06:35:00.545Z,2.94
2019-01-27T06:36:00.604Z,2.95
2019-01-27T06:37:00.535Z,2.92
2019-01-27T06:38:00.494Z,2.97
2019-01-27T06:39:00.482Z,2.91
2019-01-27T06:40:00.485Z,2.92
2019-01-27T06:41:00.494Z,2.92
2019-01-27T06:42:00.492Z,2.95
2019-01-27T06:43:00.449Z,2.94
2019-01-27T06:44:00.446Z,3.09
2019-01-27T06:45:00.423Z,3.05
2019-01-27T06:46:00.431Z,3.09
2019-01-27T06:47:00.417Z,3.07
2019-01-27T06:48:00.442Z,3.10
2019-01-27T06:49:00.390Z,3.09
2019-01-27T06:50:00.371Z,3.13
2019-01-27T06:51:00.357Z,3.13
2019-01-27T06:52:00.645Z,3.20
2019-01-27T06:53:00.342Z,3.24
2019-01-27T06:54:00.339Z,3.21
2019-01-27T06:55:00.333Z,3.23
2019-01-27T06:56:00.309Z,3.30
2019-01-27T06:57:00.301Z,3.21
2019-01-27T06:58:00.311Z,3.24
2019-01-27T06:59:00.298Z,3.25
2019-01-27T07:00:00.269Z,3.25
2019-01-27T07:01:00.256Z,3.30
2019-01-27T07:02:00.272Z,3.31
2019-01-27T07:03:00.572Z,3.33
2019-01-27T07:04:00.224Z,3.24
2019-01-27T07:05:00.264Z,3.33
2019-01-27T07:06:00.208Z,3.28
2019-01-27T07:07:00.194Z,3.39
2019-01-27T07:08:00.214Z,3.24
2019-01-27T07:09:00.185Z,3.31
2019-01-27T07:10:00.248Z,3.24
2019-01-27T07:11:00.156Z,3.28
2019-01-27T07:12:00.164Z,3.27
2019-01-27T07:13:00.131Z,3.28
2019-01-27T07:14:00.142Z,3.36
2019-01-27T07:15:00.171Z,3.25
2019-01-27T07:16:00.095Z,3.33
2019-01-27T07:17:00.077Z,3.44
2019-01-27T07:18:00.082Z,3.34
2019-01-27T07:19:00.087Z,3.39
2019-01-27T07:20:00.052Z,3.27
2019-01-27T07:21:00.117Z,3.27
2019-01-27T07:22:00.025Z,3.28
2019-01-27T07:23:00.014Z,3.30
2019-01-27T07:24:00.019Z,3.27
2019-01-27T07:25:00.004Z,3.28
2019-01-27T07:25:59.987Z,3.28
2019-01-27T07:26:59.977Z,3.28
2019-01-27T07:27:59.951Z,3.34
2019-01-27T07:28:59.998Z,3.28
2019-01-27T07:29:59.971Z,3.28
2019-01-27T07:30:59.935Z,3.31
2019-01-27T07:31:59.923Z,3.34
2019-01-27T07:32:59.921Z,3.25
2019-01-27T07:33:59.896Z,3.24
2019-01-27T07:34:59.890Z,3.36
2019-01-27T07:35:59.896Z,3.27
2019-01-27T07:36:59.858Z,3.31
2019-01-27T07:37:59.863Z,3.33
2019-01-27T07:38:59.867Z,3.34
2019-01-27T07:39:59.846Z,3.31
2019-01-27T07:40:59.829Z,3.27
2019-01-27T07:41:59.823Z,3.24
2019-01-27T07:42:59.794Z,3.31
2019-01-27T07:44:00.613Z,3.25
2019-01-27T07:44:59.792Z,3.25
2019-01-27T07:45:59.759Z,3.31
2019-01-27T07:46:59.865Z,3.27
2019-01-27T07:47:59.740Z,3.28
2019-01-27T07:48:59.748Z,3.23
2019-01-27T07:49:59.731Z,3.25
2019-01-27T07:50:59.719Z,3.25
2019-01-27T07:52:00.090Z,3.30
2019-01-27T07:52:59.692Z,3.34
2019-01-27T07:53:59.681Z,3.25
2019-01-27T07:54:59.665Z,3.31
2019-01-27T07:55:59.662Z,3.44
2019-01-27T07:57:00.083Z,3.27
2019-01-27T07:57:59.673Z,3.34
2019-01-27T07:58:59.634Z,3.28
2019-01-27T07:59:59.611Z,3.46
2019-01-27T08:00:59.599Z,3.36
2019-01-27T08:01:59.601Z,3.30
2019-01-27T08:02:59.604Z,3.31
2019-01-27T08:03:59.609Z,3.40
2019-01-27T08:04:59.566Z,3.28
2019-01-27T08:05:59.548Z,3.39
2019-01-27T08:06:59.559Z,3.28
2019-01-27T08:07:59.532Z,3.27
2019-01-27T08:08:59.537Z,3.28
2019-01-27T08:09:59.533Z,3.33
2019-01-27T08:10:59.521Z,3.28
2019-01-27T08:11:59.496Z,3.27
2019-01-27T08:12:59.489Z,3.23
2019-01-27T08:13:59.465Z,3.27
2019-01-27T08:14:59.469Z,3.28
2019-01-27T08:15:59.474Z,3.39
2019-01-27T08:16:59.435Z,3.34
2019-01-27T08:17:59.412Z,3.27
2019-01-27T08:18:59.443Z,3.34
2019-01-27T08:19:59.406Z,3.42
2019-01-27T08:20:59.375Z,3.33
2019-01-27T08:21:59.380Z,3.34
2019-01-27T08:22:59.365Z,3.44
2019-01-27T08:23:59.357Z,3.46
2019-01-27T08:24:59.362Z,3.57
2019-01-27T08:25:59.380Z,3.64
2019-01-27T08:26:59.319Z,3.65
2019-01-27T08:27:59.324Z,3.64
2019-01-27T08:28:59.288Z,3.58
2019-01-27T08:29:59.290Z,3.65
2019-01-27T08:30:59.284Z,3.72
2019-01-27T08:31:59.280Z,3.79
2019-01-27T08:32:59.244Z,3.82
2019-01-27T08:33:59.245Z,3.92
2019-01-27T08:34:59.232Z,3.86
2019-01-27T08:35:59.219Z,3.83
2019-01-27T08:36:59.245Z,3.85
2019-01-27T08:37:59.206Z,3.82
2019-01-27T08:38:59.199Z,3.85
2019-01-27T08:39:59.174Z,3.90
2019-01-27T08:40:59.179Z,3.96
2019-01-27T08:41:59.161Z,3.82
2019-01-27T08:42:59.167Z,3.83
2019-01-27T08:43:59.172Z,3.94
2019-01-27T08:44:59.178Z,3.88
2019-01-27T08:45:59.139Z,3.90
2019-01-27T08:46:59.110Z,3.90
2019-01-27T08:47:59.098Z,3.79
2019-01-27T08:48:59.084Z,3.79
2019-01-27T08:49:59.066Z,3.80
2019-01-27T08:50:59.059Z,3.88
2019-01-27T08:51:59.089Z,3.79
2019-01-27T08:52:59.032Z,3.80
2019-01-27T08:53:59.036Z,3.79
2019-01-27T08:54:59.019Z,3.86
2019-01-27T08:55:59.008Z,3.82
2019-01-27T08:56:59.045Z,3.89
2019-01-27T08:57:58.984Z,3.83
2019-01-27T08:58:58.971Z,3.85
2019-01-27T08:59:58.954Z,3.80
2019-01-27T09:00:58.945Z,3.85
2019-01-27T09:01:58.942Z,3.85
2019-01-27T09:02:58.951Z,3.85
2019-01-27T09:03:58.920Z,3.88
2019-01-27T09:04:58.907Z,3.80
2019-01-27T09:05:58.926Z,3.86
2019-01-27T09:06:58.888Z,3.96
2019-01-27T09:07:58.912Z,3.97
2019-01-27T09:08:58.863Z,4.10
2019-01-27T09:09:58.854Z,4.18
2019-01-27T09:10:58.840Z,4.26
2019-01-27T09:11:58.835Z,4.43
2019-01-27T09:12:58.815Z,4.50
2019-01-27T09:13:58.838Z,4.62
2019-01-27T09:14:58.799Z,4.67
2019-01-27T09:15:58.799Z,4.79
2019-01-27T09:16:58.783Z,5.02
2019-01-27T09:17:58.773Z,5.04
2019-01-27T09:18:58.769Z,5.25
2019-01-27T09:19:58.739Z,5.32
2019-01-27T09:20:58.738Z,5.43
2019-01-27T09:21:58.722Z,5.55
2019-01-27T09:22:58.707Z,5.57
2019-01-27T09:23:58.742Z,5.68
2019-01-27T09:24:58.718Z,5.60
2019-01-27T09:25:58.690Z,5.53
2019-01-27T09:26:58.675Z,5.46
2019-01-27T09:27:58.652Z,5.41
2019-01-27T09:28:58.647Z,5.43
2019-01-27T09:29:58.675Z,5.32
2019-01-27T09:30:58.634Z,5.41
2019-01-27T09:31:58.610Z,5.38
2019-01-27T09:32:58.604Z,5.37
2019-01-27T09:33:58.588Z,5.41
2019-01-27T09:34:58.611Z,5.38
2019-01-27T09:35:58.602Z,5.40
2019-01-27T09:36:58.577Z,5.30
2019-01-27T09:37:58.541Z,5.23
2019-01-27T09:38:58.549Z,5.20
2019-01-27T09:39:58.549Z,5.19
2019-01-27T09:40:58.532Z,5.17
2019-01-27T09:41:58.571Z,5.10
2019-01-27T09:42:58.510Z,5.02
2019-01-27T09:43:58.488Z,5.13
2019-01-27T09:44:59.525Z,5.14
2019-01-27T09:46:05.925Z,5.04
2019-01-27T09:46:59.453Z,5.17
2019-01-27T09:47:58.443Z,5.16
2019-01-27T09:48:58.445Z,5.09
2019-01-27T09:49:58.430Z,5.14
2019-01-27T09:50:58.445Z,5.10
2019-01-27T09:51:58.405Z,5.10
2019-01-27T09:52:58.387Z,5.25
2019-01-27T09:53:58.409Z,5.20
2019-01-27T09:54:58.367Z,5.13
2019-01-27T09:55:58.362Z,5.12
2019-01-27T09:56:58.397Z,5.13
2019-01-27T09:57:58.318Z,5.13
2019-01-27T09:58:58.319Z,5.07
2019-01-27T09:59:59.004Z,5.12
2019-01-27T10:00:58.298Z,5.02
2019-01-27T10:01:58.299Z,5.04
2019-01-27T10:02:58.322Z,5.17
2019-01-27T10:03:58.286Z,5.14
2019-01-27T10:04:58.272Z,5.19
2019-01-27T10:05:58.262Z,5.27
2019-01-27T10:06:58.227Z,5.19
2019-01-27T10:07:58.242Z,5.16
2019-01-27T10:08:58.217Z,5.19
2019-01-27T10:09:58.391Z,5.13
2019-01-27T10:10:58.243Z,5.27
2019-01-27T10:11:58.173Z,5.17
2019-01-27T10:12:58.194Z,5.19
2019-01-27T10:13:58.159Z,5.19
2019-01-27T10:14:58.184Z,5.28
2019-01-27T10:15:58.143Z,5.32
2019-01-27T10:16:58.123Z,5.40
2019-01-27T10:17:58.102Z,5.40
2019-01-27T10:18:58.130Z,5.45
2019-01-27T10:19:58.083Z,5.55
2019-01-27T10:20:58.074Z,5.71
2019-01-27T10:21:58.109Z,5.78
2019-01-27T10:22:58.062Z,5.86
2019-01-27T10:23:58.043Z,6.01
2019-01-27T10:24:58.118Z,6.10
2019-01-27T10:25:58.030Z,6.09
2019-01-27T10:26:58.019Z,6.09
2019-01-27T10:27:58.450Z,6.21
2019-01-27T10:28:57.997Z,6.40
2019-01-27T10:29:57.971Z,6.53
2019-01-27T10:30:57.975Z,6.48
2019-01-27T10:31:57.956Z,6.41
2019-01-27T10:32:58.507Z,6.41
2019-01-27T10:33:57.936Z,6.43
2019-01-27T10:34:59.448Z,6.40
2019-01-27T10:35:57.915Z,6.46
2019-01-27T10:36:57.906Z,6.43
2019-01-27T10:37:57.896Z,6.36
2019-01-27T10:38:57.957Z,6.47
2019-01-27T10:39:57.868Z,6.40
2019-01-27T10:40:58.349Z,6.36
2019-01-27T10:41:57.845Z,6.32
2019-01-27T10:42:57.835Z,6.18
2019-01-27T10:43:57.826Z,6.25
2019-01-27T10:44:57.830Z,6.11
2019-01-27T10:45:57.824Z,6.14
2019-01-27T10:46:57.797Z,6.03
2019-01-27T10:47:57.792Z,5.88
2019-01-27T10:48:57.782Z,5.96
2019-01-27T10:49:57.793Z,5.98
2019-01-27T10:50:57.744Z,6.03
2019-01-27T10:51:57.744Z,6.01
2019-01-27T10:52:57.721Z,5.92
2019-01-27T10:53:57.726Z,6.01
2019-01-27T10:54:57.728Z,5.98
2019-01-27T10:55:57.716Z,5.93
2019-01-27T10:56:57.678Z,5.89
2019-01-27T10:57:57.672Z,5.85
2019-01-27T10:58:57.666Z,5.73
2019-01-27T10:59:57.659Z,5.74
2019-01-27T11:00:57.674Z,5.64
2019-01-27T11:01:57.629Z,5.66
2019-01-27T11:02:57.624Z,5.56
2019-01-27T11:03:57.606Z,5.56
2019-01-27T11:04:57.613Z,5.53
2019-01-27T11:05:57.609Z,5.52
2019-01-27T11:06:57.587Z,5.50
2019-01-27T11:07:57.599Z,5.46
2019-01-27T11:08:57.572Z,5.48
2019-01-27T11:09:57.535Z,5.52
2019-01-27T11:10:57.595Z,5.50
2019-01-27T11:11:57.531Z,5.52
2019-01-27T11:12:57.516Z,5.52
2019-01-27T11:13:57.494Z,5.48
2019-01-27T11:14:57.487Z,5.37
2019-01-27T11:15:57.524Z,5.52
2019-01-27T11:16:57.488Z,5.55
2019-01-27T11:17:57.462Z,5.60
2019-01-27T11:18:57.461Z,5.56
2019-01-27T11:19:57.439Z,5.59
2019-01-27T11:20:57.430Z,5.63
2019-01-27T11:21:57.448Z,5.74
2019-01-27T11:22:57.433Z,5.68
2019-01-27T11:23:57.404Z,5.75
2019-01-27T11:24:57.374Z,5.68
2019-01-27T11:26:00.764Z,5.74
2019-01-27T11:26:57.405Z,5.64
2019-01-27T11:27:57.346Z,5.64
2019-01-27T11:28:57.340Z,5.64
2019-01-27T11:29:57.333Z,5.59
2019-01-27T11:30:57.334Z,5.64
2019-01-27T11:31:57.309Z,5.70
2019-01-27T11:32:57.328Z,5.67
2019-01-27T11:33:57.283Z,5.75
2019-01-27T11:34:57.271Z,5.78
2019-01-27T11:35:57.252Z,5.74
2019-01-27T11:36:57.239Z,5.85
2019-01-27T11:37:57.257Z,5.85
2019-01-27T11:38:57.285Z,6.01
2019-01-27T11:39:57.232Z,5.98
2019-01-27T11:40:57.220Z,6.04
2019-01-27T11:41:57.189Z,6.03
2019-01-27T11:42:57.186Z,6.01
2019-01-27T11:43:57.177Z,6.07
2019-01-27T11:44:57.198Z,6.13
2019-01-27T11:45:57.149Z,6.32
2019-01-27T11:46:57.139Z,6.30
2019-01-27T11:47:57.135Z,6.41
2019-01-27T11:48:57.110Z,6.36
2019-01-27T11:49:58.404Z,6.41
2019-01-27T11:50:57.139Z,6.32
2019-01-27T11:51:57.098Z,6.03
2019-01-27T11:52:57.084Z,6.01
2019-01-27T11:53:57.068Z,5.98
2019-01-27T11:54:57.047Z,5.85
2019-01-27T11:55:57.034Z,5.88
2019-01-27T11:56:57.065Z,5.73
2019-01-27T11:57:57.019Z,5.71
2019-01-27T11:58:57.023Z,5.70
2019-01-27T11:59:57.005Z,5.67
2019-01-27T12:00:56.987Z,5.71
2019-01-27T12:01:56.981Z,5.59
2019-01-27T12:02:57.000Z,5.56
2019-01-27T12:03:56.959Z,5.60
2019-01-27T12:04:56.954Z,5.56
2019-01-27T12:05:56.969Z,5.50
2019-01-27T12:06:56.913Z,5.49
2019-01-27T12:07:56.926Z,5.48
2019-01-27T12:08:56.927Z,5.50
2019-01-27T12:09:56.891Z,5.49
2019-01-27T12:10:56.902Z,5.60
2019-01-27T12:11:56.874Z,5.60
2019-01-27T12:12:56.890Z,5.59
2019-01-27T12:13:56.844Z,5.57
2019-01-27T12:14:56.828Z,5.52
2019-01-27T12:15:56.834Z,5.52
2019-01-27T12:16:56.850Z,5.49
2019-01-27T12:17:56.796Z,5.52
2019-01-27T12:18:56.807Z,5.56
2019-01-27T12:19:56.776Z,5.60
2019-01-27T12:20:56.759Z,5.55
2019-01-27T12:21:56.758Z,5.49
2019-01-27T12:22:56.756Z,5.50
2019-01-27T12:23:56.764Z,5.49
2019-01-27T12:24:56.727Z,5.53
2019-01-27T12:25:56.722Z,5.48
2019-01-27T12:26:56.701Z,5.45
2019-01-27T12:27:56.692Z,5.41
2019-01-27T12:28:56.706Z,5.41
2019-01-27T12:29:56.680Z,5.32
2019-01-27T12:30:56.664Z,5.30
2019-01-27T12:31:56.648Z,5.37
2019-01-27T12:32:56.652Z,5.34
2019-01-27T12:33:56.651Z,5.32
2019-01-27T12:34:56.620Z,5.41
2019-01-27T12:35:56.621Z,5.37
2019-01-27T12:36:56.598Z,5.45
2019-01-27T12:37:56.574Z,5.45
2019-01-27T12:38:56.595Z,5.55
2019-01-27T12:39:56.575Z,5.59
2019-01-27T12:40:56.563Z,5.66
2019-01-27T12:41:56.570Z,5.70
2019-01-27T12:42:56.536Z,5.68
2019-01-27T12:43:56.543Z,5.71
2019-01-27T12:44:56.509Z,5.75
2019-01-27T12:45:56.491Z,5.77
2019-01-27T12:46:56.481Z,5.71
2019-01-27T12:47:56.481Z,5.77
2019-01-27T12:48:56.524Z,5.78
2019-01-27T12:49:56.450Z,5.75
2019-01-27T12:50:56.437Z,5.75
2019-01-27T12:51:56.431Z,5.71
2019-01-27T12:52:56.418Z,5.67
2019-01-27T12:53:56.416Z,5.71
2019-01-27T12:54:56.424Z,5.63
2019-01-27T12:55:56.415Z,5.67
2019-01-27T12:56:56.444Z,5.63
2019-01-27T12:57:56.406Z,5.60
2019-01-27T12:58:57.110Z,5.63
2019-01-27T12:59:56.346Z,5.68
2019-01-27T13:00:56.380Z,5.68
2019-01-27T13:01:56.343Z,5.73
2019-01-27T13:02:56.322Z,5.70
2019-01-27T13:03:56.334Z,5.78
2019-01-27T13:04:56.292Z,5.70
2019-01-27T13:05:56.291Z,5.67
2019-01-27T13:06:56.300Z,5.75
2019-01-27T13:07:56.272Z,5.75
2019-01-27T13:08:56.242Z,5.74
2019-01-27T13:09:56.249Z,5.74
2019-01-27T13:10:56.212Z,5.91
2019-01-27T13:11:57.111Z,5.81
2019-01-27T13:12:56.226Z,5.82
2019-01-27T13:13:56.205Z,5.73
2019-01-27T13:14:56.181Z,5.78
2019-01-27T13:15:56.166Z,5.71
2019-01-27T13:16:56.159Z,5.75
2019-01-27T13:17:56.143Z,5.75